createdAt,value
2018-11-06T00:00:51.127Z,27.53
2018-11-06T00:03:25.050Z,18.00
2018-11-06T00:05:53.816Z,30.03
2018-11-06T00:08:22.296Z,28.33
2018-11-06T00:10:50.499Z,20.23
2018-11-06T00:13:18.637Z,30.77
2018-11-06T00:15:46.814Z,26.37
2018-11-06T00:18:14.994Z,18.07
2018-11-06T00:20:43.192Z,21.20
2018-11-06T00:23:11.344Z,18.13
2018-11-06T00:25:39.555Z,21.87
2018-11-06T00:28:07.811Z,20.20
2018-11-06T00:30:36.036Z,24.20
2018-11-06T00:33:04.345Z,24.90
2018-11-06T00:35:32.515Z,21.70
2018-11-06T00:38:00.723Z,18.50
2018-11-06T00:40:28.908Z,15.50
2018-11-06T00:42:57.074Z,17.83
2018-11-06T00:45:25.221Z,14.43
2018-11-06T00:47:53.453Z,14.87
2018-11-06T00:50:21.638Z,14.43
2018-11-06T00:52:49.802Z,14.43
2018-11-06T00:55:18.013Z,14.63
2018-11-06T00:57:46.252Z,16.10
2018-11-06T01:00:16.787Z,14.83
2018-11-06T01:02:45.251Z,15.30
2018-11-06T01:05:14.243Z,15.33
2018-11-06T01:07:43.497Z,14.90
2018-11-06T01:10:11.938Z,14.70
2018-11-06T01:12:40.630Z,14.90
2018-11-06T01:15:10.856Z,15.20
2018-11-06T01:17:39.063Z,15.07
2018-11-06T01:20:10.368Z,15.97
2018-11-06T01:22:38.590Z,14.57
2018-11-06T01:25:07.679Z,15.30
2018-11-06T01:27:42.684Z,15.27
2018-11-06T01:30:15.118Z,16.43
2018-11-06T01:32:44.102Z,15.37
2018-11-06T01:35:13.241Z,15.50
2018-11-06T01:37:42.147Z,15.63
2018-11-06T01:40:12.227Z,15.00
2018-11-06T01:42:40.909Z,15.43
2018-11-06T01:45:11.111Z,14.57
2018-11-06T01:47:39.520Z,14.80
2018-11-06T01:50:09.249Z,15.10
2018-11-06T01:52:37.559Z,16.77
2018-11-06T01:55:06.855Z,15.80
2018-11-06T01:57:35.075Z,15.10
2018-11-06T02:00:03.292Z,16.77
2018-11-06T02:02:31.516Z,16.60
2018-11-06T02:04:59.729Z,16.57
2018-11-06T02:07:27.953Z,16.97
2018-11-06T02:09:56.761Z,17.40
2018-11-06T02:12:25.101Z,16.30
2018-11-06T02:14:53.297Z,16.37
2018-11-06T02:17:21.521Z,16.70
2018-11-06T02:19:49.761Z,17.20
2018-11-06T02:22:18.080Z,17.30
2018-11-06T02:24:46.346Z,17.53
2018-11-06T02:27:14.545Z,16.90
2018-11-06T02:29:42.701Z,17.07
2018-11-06T02:32:11.022Z,16.53
2018-11-06T02:34:39.326Z,17.30
2018-11-06T02:37:07.574Z,16.00
2018-11-06T02:39:35.745Z,17.33
2018-11-06T02:42:04.022Z,17.63
2018-11-06T02:44:32.189Z,17.10
2018-11-06T02:47:00.420Z,17.57
2018-11-06T02:49:28.669Z,16.23
2018-11-06T02:51:56.840Z,17.40
2018-11-06T02:54:25.054Z,17.80
2018-11-06T02:56:53.273Z,18.00
2018-11-06T02:59:21.512Z,18.13
2018-11-06T03:01:49.753Z,17.47
2018-11-06T03:04:17.995Z,17.50
2018-11-06T03:06:46.178Z,17.50
2018-11-06T03:09:14.374Z,18.60
2018-11-06T03:11:42.617Z,18.40
2018-11-06T03:14:10.838Z,17.53
2018-11-06T03:16:39.194Z,18.43
2018-11-06T03:19:07.426Z,18.53
2018-11-06T03:21:35.630Z,18.13
2018-11-06T03:24:04.168Z,18.20
2018-11-06T03:26:32.398Z,17.90
2018-11-06T03:29:00.662Z,17.20
2018-11-06T03:31:28.862Z,18.20
2018-11-06T03:33:57.056Z,19.40
2018-11-06T03:36:25.250Z,19.70
2018-11-06T03:38:53.438Z,19.43
2018-11-06T03:41:21.652Z,19.47
2018-11-06T03:43:49.968Z,20.50
2018-11-06T03:46:18.234Z,21.00
2018-11-06T03:48:46.548Z,21.43
2018-11-06T03:51:14.786Z,19.10
2018-11-06T03:53:43.012Z,19.43
2018-11-06T03:56:11.276Z,20.53
2018-11-06T03:58:39.569Z,21.57
2018-11-06T04:01:08.076Z,20.87
2018-11-06T04:03:36.333Z,20.30
2018-11-06T04:06:04.616Z,19.80
2018-11-06T04:08:32.852Z,20.27
2018-11-06T04:11:02.059Z,20.23
2018-11-06T04:13:30.272Z,21.97
2018-11-06T04:15:58.478Z,22.00
2018-11-06T04:18:26.711Z,21.30
2018-11-06T04:20:54.940Z,22.60
2018-11-06T04:23:23.205Z,21.17
2018-11-06T04:25:51.409Z,22.53
2018-11-06T04:28:19.707Z,21.50
2018-11-06T04:30:47.987Z,22.10
2018-11-06T04:33:16.218Z,21.90
2018-11-06T04:35:44.475Z,23.03
2018-11-06T04:38:12.655Z,24.40
2018-11-06T04:40:40.913Z,22.73
2018-11-06T04:43:09.171Z,24.70
2018-11-06T04:45:37.341Z,22.67
2018-11-06T04:48:05.746Z,24.67
2018-11-06T04:50:33.950Z,25.37
2018-11-06T04:53:02.241Z,23.57
2018-11-06T04:55:30.488Z,24.43
2018-11-06T04:57:58.729Z,23.53
2018-11-06T05:00:26.946Z,23.77
2018-11-06T05:02:55.301Z,25.07
2018-11-06T05:05:23.569Z,24.80
2018-11-06T05:07:51.747Z,25.07
2018-11-06T05:10:19.981Z,27.27
2018-11-06T05:12:48.215Z,25.73
2018-11-06T05:15:16.609Z,25.10
2018-11-06T05:17:44.867Z,24.77
2018-11-06T05:20:15.266Z,26.83
2018-11-06T05:22:44.310Z,25.83
2018-11-06T05:25:12.579Z,27.00
2018-11-06T05:27:40.802Z,26.53
2018-11-06T05:30:10.103Z,31.30
2018-11-06T05:32:38.574Z,27.53
2018-11-06T05:35:07.322Z,26.50
2018-11-06T05:37:35.634Z,27.87
2018-11-06T05:40:49.188Z,29.73
2018-11-06T05:43:17.319Z,26.73
2018-11-06T05:45:45.633Z,28.37
2018-11-06T05:48:13.910Z,27.70
2018-11-06T05:50:42.142Z,28.47
2018-11-06T05:53:10.406Z,28.60
2018-11-06T05:55:38.506Z,27.47
2018-11-06T05:58:06.690Z,27.60
2018-11-06T06:00:34.942Z,27.50
2018-11-06T06:03:03.118Z,30.90
2018-11-06T06:05:31.276Z,28.33
2018-11-06T06:07:59.494Z,32.63
2018-11-06T06:10:27.668Z,34.60
2018-11-06T06:12:55.836Z,30.57
2018-11-06T06:15:24.010Z,29.77
2018-11-06T06:17:52.350Z,29.57
2018-11-06T06:20:20.550Z,31.20
2018-11-06T06:22:48.700Z,29.73
2018-11-06T06:25:16.874Z,28.77
2018-11-06T06:27:45.022Z,28.67
2018-11-06T06:30:15.194Z,28.67
2018-11-06T06:32:43.316Z,31.47
2018-11-06T06:35:11.530Z,29.50
2018-11-06T06:37:39.599Z,31.00
2018-11-06T06:40:11.133Z,26.40
2018-11-06T06:42:39.346Z,29.70
2018-11-06T06:45:09.362Z,29.90
2018-11-06T06:47:37.520Z,29.87
2018-11-06T06:50:12.584Z,28.67
2018-11-06T06:52:41.099Z,31.90
2018-11-06T06:55:11.019Z,30.30
2018-11-06T06:57:40.162Z,31.77
2018-11-06T07:00:10.198Z,30.30
2018-11-06T07:02:38.546Z,28.97
2018-11-06T07:05:07.636Z,27.70
2018-11-06T07:07:36.120Z,31.77
2018-11-06T07:10:04.964Z,30.60
2018-11-06T07:12:33.108Z,28.87
2018-11-06T07:15:01.275Z,28.67
2018-11-06T07:17:29.502Z,29.30
2018-11-06T07:19:57.786Z,29.80
2018-11-06T07:22:26.026Z,30.00
2018-11-06T07:24:54.198Z,29.60
2018-11-06T07:27:22.330Z,29.10
2018-11-06T07:29:50.821Z,30.20
2018-11-06T07:32:19.010Z,29.10
2018-11-06T07:34:47.278Z,29.57
2018-11-06T07:37:15.329Z,28.67
2018-11-06T07:39:43.514Z,29.10
2018-11-06T07:42:11.686Z,28.60
2018-11-06T07:44:40.031Z,31.67
2018-11-06T07:47:08.299Z,30.40
2018-11-06T07:49:36.443Z,31.47
2018-11-06T07:52:05.258Z,30.70
2018-11-06T07:54:33.476Z,31.20
2018-11-06T07:57:01.695Z,29.50
2018-11-06T07:59:29.834Z,32.00
2018-11-06T08:01:57.948Z,30.80
2018-11-06T08:04:26.509Z,29.90
2018-11-06T08:06:54.601Z,29.57
2018-11-06T08:09:22.779Z,30.00
2018-11-06T08:11:50.925Z,29.40
2018-11-06T08:14:19.257Z,29.50
2018-11-06T08:16:48.585Z,28.30
2018-11-06T08:19:16.731Z,29.93
2018-11-06T08:21:44.915Z,30.97
2018-11-06T08:24:13.139Z,29.23
2018-11-06T08:26:41.313Z,30.23
2018-11-06T08:29:09.488Z,28.40
2018-11-06T08:31:37.967Z,30.67
2018-11-06T08:34:05.973Z,29.33
2018-11-06T08:36:34.212Z,29.33
2018-11-06T08:39:02.427Z,29.17
2018-11-06T08:41:30.576Z,29.10
2018-11-06T08:43:58.685Z,30.37
2018-11-06T08:46:26.900Z,29.50
2018-11-06T08:48:55.031Z,28.47
2018-11-06T08:51:23.253Z,28.10
2018-11-06T08:53:51.376Z,27.10
2018-11-06T08:56:19.591Z,28.47
2018-11-06T08:58:47.763Z,28.33
2018-11-06T09:01:15.913Z,28.33
2018-11-06T09:03:44.083Z,27.17
2018-11-06T09:06:12.289Z,28.30
2018-11-06T09:08:40.458Z,29.03
2018-11-06T09:11:08.770Z,26.67
2018-11-06T09:13:37.029Z,25.77
2018-11-06T09:16:05.795Z,25.30
2018-11-06T09:18:34.003Z,25.33
2018-11-06T09:21:02.263Z,25.47
2018-11-06T09:23:30.396Z,24.30
2018-11-06T09:25:58.558Z,24.13
2018-11-06T09:28:26.747Z,24.37
2018-11-06T09:30:54.976Z,24.43
2018-11-06T09:33:23.077Z,25.63
2018-11-06T09:35:51.271Z,24.87
2018-11-06T09:38:19.503Z,25.80
2018-11-06T09:40:47.680Z,24.77
2018-11-06T09:43:15.659Z,24.43
2018-11-06T09:45:43.601Z,25.67
2018-11-06T09:48:11.758Z,24.30
2018-11-06T09:50:39.931Z,24.43
2018-11-06T09:53:08.121Z,23.33
2018-11-06T09:55:36.280Z,24.40
2018-11-06T09:58:04.724Z,25.07
2018-11-06T10:00:32.994Z,23.07
2018-11-06T10:03:01.199Z,24.90
2018-11-06T10:05:29.359Z,23.50
2018-11-06T10:07:57.669Z,25.53
2018-11-06T10:10:26.722Z,24.07
2018-11-06T10:12:54.907Z,24.90
2018-11-06T10:15:23.051Z,23.83
2018-11-06T10:17:51.695Z,23.43
2018-11-06T10:20:20.712Z,23.23
2018-11-06T10:22:48.892Z,25.50
2018-11-06T10:25:17.112Z,24.20
2018-11-06T10:27:45.272Z,24.20
2018-11-06T10:30:15.565Z,23.30
2018-11-06T10:32:43.713Z,22.80
2018-11-06T10:35:12.212Z,24.20
2018-11-06T10:37:40.365Z,24.50
2018-11-06T10:40:13.240Z,24.17
2018-11-06T10:42:41.723Z,24.43
2018-11-06T10:45:09.977Z,24.83
2018-11-06T10:47:38.706Z,23.40
2018-11-06T10:50:07.748Z,23.37
2018-11-06T10:52:35.924Z,22.70
2018-11-06T10:55:04.174Z,23.20
2018-11-06T10:57:32.350Z,21.77
2018-11-06T11:00:00.532Z,23.13
2018-11-06T11:02:34.162Z,24.07
2018-11-06T11:05:02.291Z,23.30
2018-11-06T11:07:30.564Z,23.20
2018-11-06T11:09:58.746Z,22.60
2018-11-06T11:12:26.975Z,24.00
2018-11-06T11:14:55.122Z,22.20
2018-11-06T11:17:23.408Z,22.80
2018-11-06T11:19:51.564Z,23.07
2018-11-06T11:22:19.789Z,25.17
2018-11-06T11:24:48.143Z,22.40
2018-11-06T11:27:16.382Z,23.60
2018-11-06T11:29:44.710Z,22.20
2018-11-06T11:32:12.943Z,21.50
2018-11-06T11:34:41.164Z,21.57
2018-11-06T11:37:09.368Z,21.17
2018-11-06T11:39:37.518Z,22.13
2018-11-06T11:42:06.558Z,21.90
2018-11-06T11:44:34.966Z,20.30
2018-11-06T11:47:03.361Z,18.70
2018-11-06T11:49:31.645Z,19.23
2018-11-06T11:52:00.290Z,20.10
2018-11-06T11:54:28.687Z,20.63
2018-11-06T11:56:57.034Z,19.63
2018-11-06T11:59:25.386Z,20.17
2018-11-06T12:01:53.903Z,18.93
2018-11-06T12:04:22.279Z,19.40
2018-11-06T12:06:50.680Z,18.50
2018-11-06T12:09:19.133Z,18.50
2018-11-06T12:11:47.500Z,19.60
2018-11-06T12:14:15.897Z,20.60
2018-11-06T12:16:44.138Z,22.20
2018-11-06T12:19:12.478Z,20.70
2018-11-06T12:21:40.825Z,22.27
2018-11-06T12:24:09.278Z,21.93
2018-11-06T12:26:37.515Z,21.17
2018-11-06T12:29:06.105Z,22.60
2018-11-06T12:31:34.343Z,21.43
2018-11-06T12:34:02.547Z,20.43
2018-11-06T12:36:30.828Z,20.47
2018-11-06T12:38:58.998Z,19.73
2018-11-06T12:41:27.379Z,19.80
2018-11-06T12:43:55.789Z,20.07
2018-11-06T12:46:24.063Z,19.67
2018-11-06T12:48:52.278Z,20.03
2018-11-06T12:51:20.616Z,20.03
2018-11-06T12:53:48.885Z,21.03
2018-11-06T12:56:17.296Z,19.17
2018-11-06T12:58:45.581Z,19.77
2018-11-06T13:01:13.837Z,20.50
2018-11-06T13:03:42.097Z,19.60
2018-11-06T13:06:10.311Z,20.27
2018-11-06T13:08:38.655Z,20.60
2018-11-06T13:11:06.932Z,19.77
2018-11-06T13:13:35.571Z,20.47
2018-11-06T13:16:04.497Z,19.73
2018-11-06T13:18:33.670Z,19.67
2018-11-06T13:21:02.289Z,20.60
2018-11-06T13:23:30.877Z,19.73
2018-11-06T13:25:59.186Z,20.93
2018-11-06T13:28:27.683Z,20.30
2018-11-06T13:30:55.952Z,20.00
2018-11-06T13:33:24.173Z,19.27
2018-11-06T13:35:52.411Z,20.23
2018-11-06T13:38:20.657Z,18.80
2018-11-06T13:40:48.939Z,19.37
2018-11-06T13:43:17.338Z,19.60
2018-11-06T13:45:46.181Z,18.67
2018-11-06T13:48:14.293Z,19.80
2018-11-06T13:50:42.574Z,19.33
2018-11-06T13:53:10.888Z,19.43
2018-11-06T13:55:40.348Z,19.40
2018-11-06T13:58:08.738Z,19.23
2018-11-06T14:00:37.021Z,20.67
2018-11-06T14:03:05.462Z,20.50
2018-11-06T14:05:33.709Z,20.40
2018-11-06T14:08:02.034Z,21.63
2018-11-06T14:10:30.461Z,20.60
2018-11-06T14:12:58.907Z,20.73
2018-11-06T14:15:27.164Z,20.27
2018-11-06T14:17:55.468Z,20.57
2018-11-06T14:20:24.048Z,20.73
2018-11-06T14:22:52.256Z,20.57
2018-11-06T14:25:20.570Z,21.57
2018-11-06T14:27:49.627Z,21.90
2018-11-06T14:30:19.162Z,22.63
2018-11-06T14:32:49.005Z,20.33
2018-11-06T14:35:18.394Z,21.47
2018-11-06T14:37:47.192Z,22.70
2018-11-06T14:40:16.106Z,21.43
2018-11-06T14:42:44.969Z,21.63
2018-11-06T14:45:14.480Z,22.50
2018-11-06T14:47:42.786Z,21.93
2018-11-06T14:50:11.512Z,21.27
2018-11-06T14:52:39.774Z,21.80
2018-11-06T14:55:09.676Z,21.70
2018-11-06T14:57:37.968Z,20.60
2018-11-06T15:00:12.470Z,22.40
2018-11-06T15:02:41.120Z,22.83
2018-11-06T15:05:09.409Z,23.00
2018-11-06T15:07:37.756Z,22.40
2018-11-06T15:10:07.560Z,22.30
2018-11-06T15:12:36.502Z,22.20
2018-11-06T15:15:06.332Z,22.90
2018-11-06T15:17:34.614Z,23.00
2018-11-06T15:20:03.098Z,23.67
2018-11-06T15:22:31.455Z,23.60
2018-11-06T15:24:59.958Z,23.80
2018-11-06T15:27:28.368Z,23.47
2018-11-06T15:29:56.603Z,24.47
2018-11-06T15:32:25.110Z,24.07
2018-11-06T15:34:53.340Z,23.40
2018-11-06T15:37:22.049Z,23.20
2018-11-06T15:39:50.744Z,23.00
2018-11-06T15:42:19.143Z,24.33
2018-11-06T15:44:47.526Z,24.77
2018-11-06T15:47:15.870Z,23.67
2018-11-06T15:49:44.305Z,22.77
2018-11-06T15:52:12.572Z,23.60
2018-11-06T15:54:40.914Z,24.93
2018-11-06T15:57:09.075Z,23.40
2018-11-06T15:59:37.401Z,25.07
2018-11-06T16:02:05.999Z,26.00
2018-11-06T16:04:34.365Z,25.13
2018-11-06T16:07:02.722Z,25.93
2018-11-06T16:09:31.045Z,24.30
2018-11-06T16:11:59.340Z,25.33
2018-11-06T16:14:28.389Z,24.10
2018-11-06T16:16:57.365Z,25.70
2018-11-06T16:19:25.853Z,27.73
2018-11-06T16:21:54.132Z,25.47
2018-11-06T16:24:22.365Z,23.77
2018-11-06T16:26:50.679Z,26.80
2018-11-06T16:29:18.990Z,25.63
2018-11-06T16:31:47.343Z,24.53
2018-11-06T16:34:15.628Z,25.70
2018-11-06T16:36:43.903Z,25.93
2018-11-06T16:39:13.157Z,25.57
2018-11-06T16:41:41.892Z,25.03
2018-11-06T16:44:10.161Z,26.53
2018-11-06T16:46:38.409Z,26.23
2018-11-06T16:49:06.937Z,27.17
2018-11-06T16:51:35.421Z,27.70
2018-11-06T16:54:03.627Z,26.03
2018-11-06T16:56:32.054Z,26.73
2018-11-06T16:59:00.390Z,28.13
2018-11-06T17:01:28.676Z,25.70
2018-11-06T17:03:57.008Z,27.43
2018-11-06T17:06:31.036Z,26.73
2018-11-06T17:08:59.515Z,26.60
2018-11-06T17:11:27.705Z,25.50
2018-11-06T17:13:55.968Z,28.40
2018-11-06T17:16:24.277Z,26.30
2018-11-06T17:18:52.604Z,27.10
2018-11-06T17:21:21.004Z,25.63
2018-11-06T17:23:49.743Z,26.90
2018-11-06T17:26:18.047Z,28.07
2018-11-06T17:28:46.546Z,27.20
2018-11-06T17:31:14.834Z,27.23
2018-11-06T17:33:43.026Z,26.97
2018-11-06T17:36:11.358Z,27.50
2018-11-06T17:38:39.660Z,25.43
2018-11-06T17:41:07.874Z,27.23
2018-11-06T17:43:36.303Z,30.03
2018-11-06T17:46:04.945Z,28.20
2018-11-06T17:48:33.406Z,28.40
2018-11-06T17:51:01.612Z,27.60
2018-11-06T17:53:29.866Z,26.87
2018-11-06T17:55:58.084Z,26.57
2018-11-06T17:58:26.618Z,26.93
2018-11-06T18:00:56.094Z,28.97
2018-11-06T18:03:24.434Z,28.10
2018-11-06T18:05:52.751Z,27.87
2018-11-06T18:08:21.354Z,27.57
2018-11-06T18:10:49.667Z,26.77
2018-11-06T18:13:18.036Z,28.90
2018-11-06T18:15:46.265Z,28.90
2018-11-06T18:18:15.184Z,29.00
2018-11-06T18:20:43.700Z,27.50
2018-11-06T18:23:12.018Z,28.83
2018-11-06T18:25:40.388Z,27.10
2018-11-06T18:28:08.494Z,28.10
2018-11-06T18:30:36.813Z,29.67
2018-11-06T18:33:05.281Z,30.40
2018-11-06T18:35:33.620Z,28.47
2018-11-06T18:38:01.881Z,28.73
2018-11-06T18:40:30.165Z,29.77
2018-11-06T18:42:58.374Z,30.13
2018-11-06T18:45:26.764Z,28.30
2018-11-06T18:47:55.154Z,27.50
2018-11-06T18:50:23.470Z,28.20
2018-11-06T18:52:52.094Z,27.77
2018-11-06T18:55:20.422Z,27.30
2018-11-06T18:57:48.714Z,29.47
2018-11-06T19:00:20.571Z,28.67
2018-11-06T19:02:50.213Z,28.67
2018-11-06T19:05:19.058Z,28.43
2018-11-06T19:07:47.552Z,28.50
2018-11-06T19:10:16.419Z,28.50
2018-11-06T19:12:44.923Z,28.40
2018-11-06T19:15:16.292Z,27.20
2018-11-06T19:17:45.828Z,28.97
2018-11-06T19:20:14.785Z,28.53
2018-11-06T19:22:43.171Z,29.70
2018-11-06T19:25:12.408Z,30.43
2018-11-06T19:27:41.089Z,28.40
2018-11-06T19:30:12.101Z,30.40
2018-11-06T19:32:40.728Z,30.20
2018-11-06T19:35:09.095Z,30.50
2018-11-06T19:37:38.131Z,31.30
2018-11-06T19:40:08.324Z,29.40
2018-11-06T19:42:37.686Z,29.70
2018-11-06T19:45:07.165Z,32.53
2018-11-06T19:47:35.515Z,30.40
2018-11-06T19:50:04.228Z,31.17
2018-11-06T19:52:32.626Z,30.67
2018-11-06T19:55:01.133Z,31.07
2018-11-06T19:57:29.504Z,31.77
2018-11-06T19:59:58.002Z,30.60
2018-11-06T20:02:26.957Z,30.13
2018-11-06T20:04:55.897Z,31.80
2018-11-06T20:07:24.283Z,31.40
2018-11-06T20:09:52.753Z,30.53
2018-11-06T20:12:21.290Z,31.33
2018-11-06T20:14:49.633Z,35.13
2018-11-06T20:17:18.094Z,35.27
2018-11-06T20:19:46.547Z,33.90
2018-11-06T20:22:14.835Z,30.87
2018-11-06T20:24:43.214Z,33.17
2018-11-06T20:27:11.742Z,32.83
2018-11-06T20:29:40.214Z,32.53
2018-11-06T20:32:08.649Z,34.43
2018-11-06T20:34:36.994Z,34.87
2018-11-06T20:37:05.479Z,32.87
2018-11-06T20:39:34.013Z,33.70
2018-11-06T20:42:02.739Z,32.57
2018-11-06T20:44:31.154Z,31.90
2018-11-06T20:47:00.058Z,32.50
2018-11-06T20:49:28.516Z,32.50
2018-11-06T20:51:56.795Z,33.60
2018-11-06T20:54:25.116Z,34.37
2018-11-06T20:56:53.551Z,32.70
2018-11-06T20:59:21.854Z,32.23
2018-11-06T21:01:50.214Z,31.43
2018-11-06T21:04:18.596Z,32.23
2018-11-06T21:06:53.641Z,38.13
2018-11-06T21:09:21.997Z,36.10
2018-11-06T21:11:51.374Z,34.20
2018-11-06T21:14:19.679Z,34.70
2018-11-06T21:16:47.994Z,33.17
2018-11-06T21:19:16.280Z,34.13
2018-11-06T21:21:44.549Z,33.17
2018-11-06T21:24:20.210Z,34.77
2018-11-06T21:26:48.751Z,34.57
2018-11-06T21:29:17.018Z,33.43
2018-11-06T21:31:45.392Z,33.83
2018-11-06T21:34:13.670Z,35.33
2018-11-06T21:36:41.998Z,34.53
2018-11-06T21:39:10.911Z,33.97
2018-11-06T21:41:39.227Z,33.60
2018-11-06T21:44:07.708Z,33.30
2018-11-06T21:46:36.022Z,33.60
2018-11-06T21:49:04.303Z,33.80
2018-11-06T21:51:38.994Z,33.97
2018-11-06T21:54:14.006Z,34.90
2018-11-06T21:56:42.272Z,35.80
2018-11-06T21:59:10.604Z,34.53
2018-11-06T22:01:38.816Z,32.93
2018-11-06T22:04:07.075Z,36.13
2018-11-06T22:06:35.366Z,33.87
2018-11-06T22:09:04.601Z,34.30
2018-11-06T22:11:32.908Z,32.50
2018-11-06T22:14:01.180Z,34.00
2018-11-06T22:16:29.450Z,35.20
2018-11-06T22:21:46.011Z,33.73
2018-11-06T22:24:14.157Z,34.13
2018-11-06T22:26:42.497Z,34.53
2018-11-06T22:29:10.741Z,34.33
2018-11-06T22:31:39.122Z,35.07
2018-11-06T22:34:07.472Z,34.87
2018-11-06T22:36:36.440Z,35.33
2018-11-06T22:39:07.206Z,33.57
2018-11-06T22:41:35.510Z,35.10
2018-11-06T22:44:03.837Z,32.80
2018-11-06T22:46:32.035Z,33.80
2018-11-06T22:49:00.319Z,33.00
2018-11-06T22:51:28.699Z,36.40
2018-11-06T22:53:56.980Z,34.50
2018-11-06T22:56:25.252Z,33.70
2018-11-06T22:58:53.559Z,32.37
2018-11-06T23:01:23.311Z,34.13
2018-11-06T23:03:51.886Z,33.83
2018-11-06T23:06:20.987Z,32.90
2018-11-06T23:08:49.169Z,33.53
2018-11-06T23:11:17.417Z,33.57
2018-11-06T23:13:45.708Z,33.27
2018-11-06T23:16:13.995Z,32.33
2018-11-06T23:18:42.247Z,37.87
2018-11-06T23:21:10.445Z,32.37
2018-11-06T23:23:38.783Z,33.67
2018-11-06T23:26:07.044Z,32.70
2018-11-06T23:28:35.255Z,34.13
2018-11-06T23:31:03.549Z,33.30
2018-11-06T23:33:31.799Z,33.77
2018-11-06T23:36:00.038Z,31.00
2018-11-06T23:38:28.395Z,31.93
2018-11-06T23:40:56.635Z,33.87
2018-11-06T23:43:24.881Z,34.20
2018-11-06T23:45:53.195Z,36.93
2018-11-06T23:48:22.215Z,32.70
2018-11-06T23:50:50.883Z,33.43
2018-11-06T23:53:21.490Z,34.43
2018-11-06T23:55:51.042Z,30.73
2018-11-06T23:58:19.876Z,33.70
